sensor_id;sensor_type;location;lat;lon;timestamp;P1;durP1;ratioP1;P2;durP2;ratioP2
61531;SDS011;47397;48.194;11.632;2023-03-14T00:00:28;1.10;;;0.65;;
61531;SDS011;47397;48.194;11.632;2023-03-14T00:01:28;0.63;;;0.40;;
61531;SDS011;47397;48.194;11.632;2023-03-14T00:02:28;0.88;;;0.40;;
61531;SDS011;47397;48.194;11.632;2023-03-14T00:03:29;0.65;;;0.40;;
61531;SDS011;47397;48.194;11.632;2023-03-14T00:04:29;0.98;;;0.60;;
61531;SDS011;47397;48.194;11.632;2023-03-14T00:05:29;0.90;;;0.50;;
61531;SDS011;47397;48.194;11.632;2023-03-14T00:06:31;0.65;;;0.50;;
61531;SDS011;47397;48.194;11.632;2023-03-14T00:07:32;0.52;;;0.50;;
61531;SDS011;47397;48.194;11.632;2023-03-14T00:08:33;0.95;;;0.45;;
61531;SDS011;47397;48.194;11.632;2023-03-14T00:09:34;0.43;;;0.40;;
61531;SDS011;47397;48.194;11.632;2023-03-14T00:10:35;0.68;;;0.50;;
61531;SDS011;47397;48.194;11.632;2023-03-14T00:11:36;0.95;;;0.40;;
61531;SDS011;47397;48.194;11.632;2023-03-14T00:12:36;1.27;;;0.63;;
61531;SDS011;47397;48.194;11.632;2023-03-14T00:13:37;0.73;;;0.50;;
61531;SDS011;47397;48.194;11.632;2023-03-14T00:14:38;0.70;;;0.50;;
61531;SDS011;47397;48.194;11.632;2023-03-14T00:15:38;1.48;;;0.40;;
61531;SDS011;47397;48.194;11.632;2023-03-14T00:16:39;0.50;;;0.40;;
61531;SDS011;47397;48.194;11.632;2023-03-14T00:17:42;1.48;;;0.60;;
61531;SDS011;47397;48.194;11.632;2023-03-14T00:18:43;1.35;;;0.70;;
61531;SDS011;47397;48.194;11.632;2023-03-14T00:19:43;1.30;;;0.68;;
61531;SDS011;47397;48.194;11.632;2023-03-14T00:20:43;0.75;;;0.52;;
61531;SDS011;47397;48.194;11.632;2023-03-14T00:21:45;0.77;;;0.50;;
61531;SDS011;47397;48.194;11.632;2023-03-14T00:22:46;0.80;;;0.50;;
61531;SDS011;47397;48.194;11.632;2023-03-14T00:23:46;1.02;;;0.70;;
61531;SDS011;47397;48.194;11.632;2023-03-14T00:24:47;0.70;;;0.50;;
61531;SDS011;47397;48.194;11.632;2023-03-14T00:25:47;1.05;;;0.60;;
61531;SDS011;47397;48.194;11.632;2023-03-14T00:26:48;1.08;;;0.60;;
61531;SDS011;47397;48.194;11.632;2023-03-14T00:27:49;1.10;;;0.60;;
61531;SDS011;47397;48.194;11.632;2023-03-14T00:28:51;0.70;;;0.50;;
61531;SDS011;47397;48.194;11.632;2023-03-14T00:29:52;1.05;;;0.60;;
61531;SDS011;47397;48.194;11.632;2023-03-14T00:30:52;1.50;;;0.50;;
61531;SDS011;47397;48.194;11.632;2023-03-14T00:31:53;0.57;;;0.50;;
61531;SDS011;47397;48.194;11.632;2023-03-14T00:32:53;1.08;;;0.60;;
61531;SDS011;47397;48.194;11.632;2023-03-14T00:33:54;0.93;;;0.60;;
61531;SDS011;47397;48.194;11.632;2023-03-14T00:34:54;1.58;;;0.50;;
61531;SDS011;47397;48.194;11.632;2023-03-14T00:35:55;0.70;;;0.60;;
61531;SDS011;47397;48.194;11.632;2023-03-14T00:36:58;0.90;;;0.57;;
61531;SDS011;47397;48.194;11.632;2023-03-14T00:37:58;1.27;;;0.68;;
61531;SDS011;47397;48.194;11.632;2023-03-14T00:38:58;0.85;;;0.50;;
61531;SDS011;47397;48.194;11.632;2023-03-14T00:39:59;1.20;;;0.60;;
61531;SDS011;47397;48.194;11.632;2023-03-14T00:41:01;2.38;;;0.70;;
61531;SDS011;47397;48.194;11.632;2023-03-14T00:42:03;0.70;;;0.50;;
61531;SDS011;47397;48.194;11.632;2023-03-14T00:43:03;0.85;;;0.50;;
61531;SDS011;47397;48.194;11.632;2023-03-14T00:44:04;0.47;;;0.40;;
61531;SDS011;47397;48.194;11.632;2023-03-14T00:45:05;1.27;;;0.40;;
61531;SDS011;47397;48.194;11.632;2023-03-14T00:46:06;0.77;;;0.50;;
61531;SDS011;47397;48.194;11.632;2023-03-14T00:47:06;0.50;;;0.45;;
61531;SDS011;47397;48.194;11.632;2023-03-14T00:48:07;0.52;;;0.50;;
61531;SDS011;47397;48.194;11.632;2023-03-14T00:49:07;0.70;;;0.52;;
61531;SDS011;47397;48.194;11.632;2023-03-14T00:50:08;0.50;;;0.43;;
61531;SDS011;47397;48.194;11.632;2023-03-14T00:51:09;1.15;;;0.47;;
61531;SDS011;47397;48.194;11.632;2023-03-14T00:52:11;0.90;;;0.50;;
61531;SDS011;47397;48.194;11.632;2023-03-14T00:53:11;0.95;;;0.50;;
61531;SDS011;47397;48.194;11.632;2023-03-14T00:54:12;1.65;;;0.70;;
61531;SDS011;47397;48.194;11.632;2023-03-14T00:55:12;0.70;;;0.50;;
61531;SDS011;47397;48.194;11.632;2023-03-14T00:56:13;1.10;;;0.60;;
61531;SDS011;47397;48.194;11.632;2023-03-14T00:57:13;0.45;;;0.45;;
61531;SDS011;47397;48.194;11.632;2023-03-14T00:58:14;1.38;;;0.60;;
61531;SDS011;47397;48.194;11.632;2023-03-14T00:59:16;0.73;;;0.40;;
61531;SDS011;47397;48.194;11.632;2023-03-14T01:00:17;0.60;;;0.57;;
61531;SDS011;47397;48.194;11.632;2023-03-14T01:01:18;0.93;;;0.60;;
61531;SDS011;47397;48.194;11.632;2023-03-14T01:02:18;0.70;;;0.50;;
61531;SDS011;47397;48.194;11.632;2023-03-14T01:03:19;2.10;;;0.80;;
61531;SDS011;47397;48.194;11.632;2023-03-14T01:04:19;0.95;;;0.60;;
61531;SDS011;47397;48.194;11.632;2023-03-14T01:05:21;1.00;;;0.60;;
61531;SDS011;47397;48.194;11.632;2023-03-14T01:06:22;1.23;;;0.70;;
61531;SDS011;47397;48.194;11.632;2023-03-14T01:07:25;0.55;;;0.50;;
61531;SDS011;47397;48.194;11.632;2023-03-14T01:08:25;1.67;;;0.70;;
61531;SDS011;47397;48.194;11.632;2023-03-14T01:09:26;1.98;;;0.60;;
61531;SDS011;47397;48.194;11.632;2023-03-14T01:10:26;1.20;;;0.60;;
61531;SDS011;47397;48.194;11.632;2023-03-14T01:11:28;1.40;;;0.50;;
61531;SDS011;47397;48.194;11.632;2023-03-14T01:12:29;0.52;;;0.50;;
61531;SDS011;47397;48.194;11.632;2023-03-14T01:13:30;0.70;;;0.50;;
61531;SDS011;47397;48.194;11.632;2023-03-14T01:14:30;1.67;;;0.50;;
61531;SDS011;47397;48.194;11.632;2023-03-14T01:15:31;0.60;;;0.50;;
61531;SDS011;47397;48.194;11.632;2023-03-14T01:16:33;0.52;;;0.50;;
61531;SDS011;47397;48.194;11.632;2023-03-14T01:17:34;1.15;;;0.60;;
61531;SDS011;47397;48.194;11.632;2023-03-14T01:18:35;0.82;;;0.50;;
61531;SDS011;47397;48.194;11.632;2023-03-14T01:19:36;0.73;;;0.45;;
61531;SDS011;47397;48.194;11.632;2023-03-14T01:20:36;0.90;;;0.55;;
61531;SDS011;47397;48.194;11.632;2023-03-14T01:21:38;1.25;;;0.60;;
61531;SDS011;47397;48.194;11.632;2023-03-14T01:22:40;0.80;;;0.50;;
61531;SDS011;47397;48.194;11.632;2023-03-14T01:23:41;1.00;;;0.55;;
61531;SDS011;47397;48.194;11.632;2023-03-14T01:24:42;1.30;;;0.40;;
61531;SDS011;47397;48.194;11.632;2023-03-14T01:25:42;1.05;;;0.60;;
61531;SDS011;47397;48.194;11.632;2023-03-14T01:26:42;0.85;;;0.60;;
61531;SDS011;47397;48.194;11.632;2023-03-14T01:27:43;1.48;;;0.65;;
61531;SDS011;47397;48.194;11.632;2023-03-14T01:28:44;1.17;;;0.70;;
61531;SDS011;47397;48.194;11.632;2023-03-14T01:29:45;1.73;;;0.75;;
61531;SDS011;47397;48.194;11.632;2023-03-14T01:30:46;1.98;;;0.68;;
61531;SDS011;47397;48.194;11.632;2023-03-14T01:31:46;1.88;;;0.60;;
61531;SDS011;47397;48.194;11.632;2023-03-14T01:32:47;1.30;;;0.63;;
61531;SDS011;47397;48.194;11.632;2023-03-14T01:33:47;2.30;;;0.63;;
61531;SDS011;47397;48.194;11.632;2023-03-14T01:34:47;1.10;;;0.70;;
61531;SDS011;47397;48.194;11.632;2023-03-14T01:35:49;2.53;;;0.70;;
61531;SDS011;47397;48.194;11.632;2023-03-14T01:36:50;1.27;;;0.60;;
61531;SDS011;47397;48.194;11.632;2023-03-14T01:37:51;0.98;;;0.50;;
61531;SDS011;47397;48.194;11.632;2023-03-14T01:38:52;0.80;;;0.50;;
61531;SDS011;47397;48.194;11.632;2023-03-14T01:39:52;1.10;;;0.60;;
61531;SDS011;47397;48.194;11.632;2023-03-14T01:40:53;1.35;;;0.60;;
61531;SDS011;47397;48.194;11.632;2023-03-14T01:41:53;1.50;;;0.73;;
61531;SDS011;47397;48.194;11.632;2023-03-14T01:42:54;1.25;;;0.63;;
61531;SDS011;47397;48.194;11.632;2023-03-14T01:43:55;1.17;;;0.60;;
61531;SDS011;47397;48.194;11.632;2023-03-14T01:44:56;1.10;;;0.60;;
61531;SDS011;47397;48.194;11.632;2023-03-14T01:46:12;1.13;;;0.68;;
61531;SDS011;47397;48.194;11.632;2023-03-14T01:47:19;1.67;;;0.90;;
61531;SDS011;47397;48.194;11.632;2023-03-14T01:48:20;1.58;;;0.63;;
61531;SDS011;47397;48.194;11.632;2023-03-14T01:49:21;1.90;;;0.90;;
61531;SDS011;47397;48.194;11.632;2023-03-14T01:50:24;1.30;;;0.63;;
61531;SDS011;47397;48.194;11.632;2023-03-14T01:51:25;1.05;;;0.60;;
61531;SDS011;47397;48.194;11.632;2023-03-14T01:52:31;1.23;;;0.60;;
61531;SDS011;47397;48.194;11.632;2023-03-14T01:53:36;1.45;;;0.60;;
61531;SDS011;47397;48.194;11.632;2023-03-14T01:54:39;2.30;;;0.65;;
61531;SDS011;47397;48.194;11.632;2023-03-14T01:55:42;1.70;;;0.50;;
61531;SDS011;47397;48.194;11.632;2023-03-14T01:56:43;0.80;;;0.50;;
61531;SDS011;47397;48.194;11.632;2023-03-14T01:57:49;0.85;;;0.50;;
61531;SDS011;47397;48.194;11.632;2023-03-14T01:58:52;1.45;;;0.60;;
61531;SDS011;47397;48.194;11.632;2023-03-14T01:59:54;1.42;;;0.60;;
61531;SDS011;47397;48.194;11.632;2023-03-14T02:00:57;1.67;;;0.70;;
61531;SDS011;47397;48.194;11.632;2023-03-14T02:01:58;0.75;;;0.50;;
61531;SDS011;47397;48.194;11.632;2023-03-14T02:03:00;1.35;;;0.65;;
61531;SDS011;47397;48.194;11.632;2023-03-14T02:04:02;1.60;;;0.50;;
61531;SDS011;47397;48.194;11.632;2023-03-14T02:05:05;1.15;;;0.50;;
61531;SDS011;47397;48.194;11.632;2023-03-14T02:06:06;0.82;;;0.40;;
61531;SDS011;47397;48.194;11.632;2023-03-14T02:07:09;0.50;;;0.50;;
61531;SDS011;47397;48.194;11.632;2023-03-14T02:08:13;1.10;;;0.50;;
61531;SDS011;47397;48.194;11.632;2023-03-14T02:09:17;1.05;;;0.40;;
61531;SDS011;47397;48.194;11.632;2023-03-14T02:10:19;1.15;;;0.50;;
61531;SDS011;47397;48.194;11.632;2023-03-14T02:11:22;0.98;;;0.50;;
61531;SDS011;47397;48.194;11.632;2023-03-14T02:12:28;0.82;;;0.40;;
61531;SDS011;47397;48.194;11.632;2023-03-14T02:13:28;0.43;;;0.40;;
61531;SDS011;47397;48.194;11.632;2023-03-14T02:14:30;0.90;;;0.50;;
61531;SDS011;47397;48.194;11.632;2023-03-14T02:15:32;0.93;;;0.47;;
61531;SDS011;47397;48.194;11.632;2023-03-14T02:16:34;0.68;;;0.40;;
61531;SDS011;47397;48.194;11.632;2023-03-14T02:17:35;1.13;;;0.60;;
61531;SDS011;47397;48.194;11.632;2023-03-14T02:18:35;0.73;;;0.50;;
61531;SDS011;47397;48.194;11.632;2023-03-14T02:19:40;0.82;;;0.50;;
61531;SDS011;47397;48.194;11.632;2023-03-14T02:22:02;0.77;;;0.40;;
61531;SDS011;47397;48.194;11.632;2023-03-14T02:23:07;1.30;;;0.45;;
61531;SDS011;47397;48.194;11.632;2023-03-14T02:24:09;0.98;;;0.40;;
61531;SDS011;47397;48.194;11.632;2023-03-14T02:25:19;1.20;;;0.60;;
61531;SDS011;47397;48.194;11.632;2023-03-14T02:26:28;0.65;;;0.40;;
61531;SDS011;47397;48.194;11.632;2023-03-14T02:27:36;0.40;;;0.30;;
61531;SDS011;47397;48.194;11.632;2023-03-14T02:28:38;0.98;;;0.50;;
61531;SDS011;47397;48.194;11.632;2023-03-14T02:29:39;1.35;;;0.70;;
61531;SDS011;47397;48.194;11.632;2023-03-14T02:30:45;1.25;;;0.50;;
61531;SDS011;47397;48.194;11.632;2023-03-14T02:31:46;1.05;;;0.47;;
61531;SDS011;47397;48.194;11.632;2023-03-14T02:32:47;1.58;;;0.50;;
61531;SDS011;47397;48.194;11.632;2023-03-14T02:33:51;0.50;;;0.40;;
61531;SDS011;47397;48.194;11.632;2023-03-14T02:34:52;0.38;;;0.38;;
61531;SDS011;47397;48.194;11.632;2023-03-14T02:35:56;0.95;;;0.60;;
61531;SDS011;47397;48.194;11.632;2023-03-14T02:36:58;1.00;;;0.52;;
61531;SDS011;47397;48.194;11.632;2023-03-14T02:38:01;0.80;;;0.50;;
61531;SDS011;47397;48.194;11.632;2023-03-14T02:39:10;0.55;;;0.50;;
61531;SDS011;47397;48.194;11.632;2023-03-14T02:40:16;0.45;;;0.30;;
61531;SDS011;47397;48.194;11.632;2023-03-14T02:41:16;0.98;;;0.50;;
61531;SDS011;47397;48.194;11.632;2023-03-14T02:42:16;1.20;;;0.50;;
61531;SDS011;47397;48.194;11.632;2023-03-14T02:43:18;0.55;;;0.47;;
61531;SDS011;47397;48.194;11.632;2023-03-14T02:44:19;0.77;;;0.47;;
61531;SDS011;47397;48.194;11.632;2023-03-14T02:45:29;0.45;;;0.40;;
61531;SDS011;47397;48.194;11.632;2023-03-14T02:46:34;0.68;;;0.40;;
61531;SDS011;47397;48.194;11.632;2023-03-14T02:47:35;1.02;;;0.50;;
61531;SDS011;47397;48.194;11.632;2023-03-14T02:48:39;0.90;;;0.50;;
61531;SDS011;47397;48.194;11.632;2023-03-14T02:49:43;0.40;;;0.40;;
61531;SDS011;47397;48.194;11.632;2023-03-14T02:50:43;1.75;;;0.60;;
61531;SDS011;47397;48.194;11.632;2023-03-14T02:51:46;0.65;;;0.40;;
61531;SDS011;47397;48.194;11.632;2023-03-14T02:52:47;0.60;;;0.40;;
61531;SDS011;47397;48.194;11.632;2023-03-14T02:53:47;0.63;;;0.43;;
61531;SDS011;47397;48.194;11.632;2023-03-14T02:54:48;0.80;;;0.40;;
61531;SDS011;47397;48.194;11.632;2023-03-14T02:55:48;1.58;;;0.50;;
61531;SDS011;47397;48.194;11.632;2023-03-14T02:56:49;0.38;;;0.38;;
61531;SDS011;47397;48.194;11.632;2023-03-14T02:57:49;0.60;;;0.43;;
61531;SDS011;47397;48.194;11.632;2023-03-14T02:58:51;0.90;;;0.40;;
61531;SDS011;47397;48.194;11.632;2023-03-14T02:59:52;0.30;;;0.30;;
61531;SDS011;47397;48.194;11.632;2023-03-14T03:00:52;0.68;;;0.40;;
61531;SDS011;47397;48.194;11.632;2023-03-14T03:01:53;0.73;;;0.40;;
61531;SDS011;47397;48.194;11.632;2023-03-14T03:02:53;0.30;;;0.30;;
61531;SDS011;47397;48.194;11.632;2023-03-14T03:03:53;0.68;;;0.40;;
61531;SDS011;47397;48.194;11.632;2023-03-14T03:04:54;0.88;;;0.38;;
61531;SDS011;47397;48.194;11.632;2023-03-14T03:05:55;1.13;;;0.52;;
61531;SDS011;47397;48.194;11.632;2023-03-14T03:06:56;0.52;;;0.38;;
61531;SDS011;47397;48.194;11.632;2023-03-14T03:07:57;0.77;;;0.50;;
61531;SDS011;47397;48.194;11.632;2023-03-14T03:08:57;0.30;;;0.30;;
61531;SDS011;47397;48.194;11.632;2023-03-14T03:09:57;0.80;;;0.40;;
61531;SDS011;47397;48.194;11.632;2023-03-14T03:10:58;0.30;;;0.30;;
61531;SDS011;47397;48.194;11.632;2023-03-14T03:11:59;0.30;;;0.30;;
61531;SDS011;47397;48.194;11.632;2023-03-14T03:12:59;0.40;;;0.40;;
61531;SDS011;47397;48.194;11.632;2023-03-14T03:14:01;1.42;;;0.40;;
61531;SDS011;47397;48.194;11.632;2023-03-14T03:15:01;0.30;;;0.30;;
61531;SDS011;47397;48.194;11.632;2023-03-14T03:16:02;0.40;;;0.35;;
61531;SDS011;47397;48.194;11.632;2023-03-14T03:17:04;0.68;;;0.40;;
61531;SDS011;47397;48.194;11.632;2023-03-14T03:18:04;1.10;;;0.50;;
61531;SDS011;47397;48.194;11.632;2023-03-14T03:19:05;0.77;;;0.52;;
61531;SDS011;47397;48.194;11.632;2023-03-14T03:20:06;0.30;;;0.30;;
61531;SDS011;47397;48.194;11.632;2023-03-14T03:21:07;0.57;;;0.40;;
61531;SDS011;47397;48.194;11.632;2023-03-14T03:22:07;0.70;;;0.47;;
61531;SDS011;47397;48.194;11.632;2023-03-14T03:23:08;0.65;;;0.30;;
61531;SDS011;47397;48.194;11.632;2023-03-14T03:24:11;0.55;;;0.45;;
61531;SDS011;47397;48.194;11.632;2023-03-14T03:25:11;0.90;;;0.32;;
61531;SDS011;47397;48.194;11.632;2023-03-14T03:26:12;0.40;;;0.40;;
61531;SDS011;47397;48.194;11.632;2023-03-14T03:27:12;0.68;;;0.45;;
61531;SDS011;47397;48.194;11.632;2023-03-14T03:28:13;0.57;;;0.35;;
61531;SDS011;47397;48.194;11.632;2023-03-14T03:29:15;0.40;;;0.30;;
61531;SDS011;47397;48.194;11.632;2023-03-14T03:30:15;0.22;;;0.22;;
61531;SDS011;47397;48.194;11.632;2023-03-14T03:31:16;0.70;;;0.50;;
61531;SDS011;47397;48.194;11.632;2023-03-14T03:32:16;0.30;;;0.30;;
61531;SDS011;47397;48.194;11.632;2023-03-14T03:33:16;0.30;;;0.30;;
61531;SDS011;47397;48.194;11.632;2023-03-14T03:34:17;1.00;;;0.40;;
61531;SDS011;47397;48.194;11.632;2023-03-14T03:35:17;0.98;;;0.38;;
61531;SDS011;47397;48.194;11.632;2023-03-14T03:36:20;0.75;;;0.40;;
61531;SDS011;47397;48.194;11.632;2023-03-14T03:37:21;0.30;;;0.30;;
61531;SDS011;47397;48.194;11.632;2023-03-14T03:38:21;0.47;;;0.40;;
61531;SDS011;47397;48.194;11.632;2023-03-14T03:39:22;0.25;;;0.25;;
61531;SDS011;47397;48.194;11.632;2023-03-14T03:40:22;0.35;;;0.30;;
61531;SDS011;47397;48.194;11.632;2023-03-14T03:41:22;0.30;;;0.30;;
61531;SDS011;47397;48.194;11.632;2023-03-14T03:42:23;0.30;;;0.30;;
61531;SDS011;47397;48.194;11.632;2023-03-14T03:43:23;0.30;;;0.30;;
61531;SDS011;47397;48.194;11.632;2023-03-14T03:44:25;0.30;;;0.30;;
61531;SDS011;47397;48.194;11.632;2023-03-14T03:45:26;0.30;;;0.30;;
61531;SDS011;47397;48.194;11.632;2023-03-14T03:46:26;0.20;;;0.20;;
61531;SDS011;47397;48.194;11.632;2023-03-14T03:47:27;0.43;;;0.43;;
61531;SDS011;47397;48.194;11.632;2023-03-14T03:48:27;0.85;;;0.30;;
61531;SDS011;47397;48.194;11.632;2023-03-14T03:49:28;0.30;;;0.30;;
61531;SDS011;47397;48.194;11.632;2023-03-14T03:50:30;0.30;;;0.30;;
61531;SDS011;47397;48.194;11.632;2023-03-14T03:51:30;0.30;;;0.30;;
61531;SDS011;47397;48.194;11.632;2023-03-14T03:52:31;0.30;;;0.30;;
61531;SDS011;47397;48.194;11.632;2023-03-14T03:53:31;0.30;;;0.30;;
61531;SDS011;47397;48.194;11.632;2023-03-14T03:54:31;0.40;;;0.35;;
61531;SDS011;47397;48.194;11.632;2023-03-14T03:55:32;0.30;;;0.30;;
61531;SDS011;47397;48.194;11.632;2023-03-14T03:56:32;0.30;;;0.30;;
61531;SDS011;47397;48.194;11.632;2023-03-14T03:57:33;1.38;;;0.38;;
61531;SDS011;47397;48.194;11.632;2023-03-14T03:58:33;0.20;;;0.20;;
61531;SDS011;47397;48.194;11.632;2023-03-14T03:59:35;0.30;;;0.30;;
61531;SDS011;47397;48.194;11.632;2023-03-14T04:00:35;0.40;;;0.40;;
61531;SDS011;47397;48.194;11.632;2023-03-14T04:01:36;0.38;;;0.30;;
61531;SDS011;47397;48.194;11.632;2023-03-14T04:02:36;0.20;;;0.20;;
61531;SDS011;47397;48.194;11.632;2023-03-14T04:03:36;0.47;;;0.40;;
61531;SDS011;47397;48.194;11.632;2023-03-14T04:04:37;0.30;;;0.30;;
61531;SDS011;47397;48.194;11.632;2023-03-14T04:05:38;0.85;;;0.40;;
61531;SDS011;47397;48.194;11.632;2023-03-14T04:06:38;0.47;;;0.30;;
61531;SDS011;47397;48.194;11.632;2023-03-14T04:07:39;1.38;;;0.30;;
61531;SDS011;47397;48.194;11.632;2023-03-14T04:08:39;1.25;;;0.40;;
61531;SDS011;47397;48.194;11.632;2023-03-14T04:09:39;1.27;;;0.50;;
61531;SDS011;47397;48.194;11.632;2023-03-14T04:10:40;0.50;;;0.40;;
61531;SDS011;47397;48.194;11.632;2023-03-14T04:11:40;1.13;;;0.50;;
61531;SDS011;47397;48.194;11.632;2023-03-14T04:12:41;0.57;;;0.40;;
61531;SDS011;47397;48.194;11.632;2023-03-14T04:13:41;0.28;;;0.28;;
61531;SDS011;47397;48.194;11.632;2023-03-14T04:14:43;0.35;;;0.30;;
61531;SDS011;47397;48.194;11.632;2023-03-14T04:15:43;1.00;;;0.40;;
61531;SDS011;47397;48.194;11.632;2023-03-14T04:16:44;0.38;;;0.30;;
61531;SDS011;47397;48.194;11.632;2023-03-14T04:17:44;0.20;;;0.20;;
61531;SDS011;47397;48.194;11.632;2023-03-14T04:18:44;0.20;;;0.20;;
61531;SDS011;47397;48.194;11.632;2023-03-14T04:19:45;1.00;;;0.30;;
61531;SDS011;47397;48.194;11.632;2023-03-14T04:20:45;0.30;;;0.30;;
61531;SDS011;47397;48.194;11.632;2023-03-14T04:21:50;0.30;;;0.30;;
61531;SDS011;47397;48.194;11.632;2023-03-14T04:22:50;0.43;;;0.30;;
61531;SDS011;47397;48.194;11.632;2023-03-14T04:23:51;0.30;;;0.30;;
61531;SDS011;47397;48.194;11.632;2023-03-14T04:24:51;0.30;;;0.30;;
61531;SDS011;47397;48.194;11.632;2023-03-14T04:25:52;0.40;;;0.40;;
61531;SDS011;47397;48.194;11.632;2023-03-14T04:26:53;0.73;;;0.30;;
61531;SDS011;47397;48.194;11.632;2023-03-14T04:27:53;0.35;;;0.30;;
61531;SDS011;47397;48.194;11.632;2023-03-14T04:28:54;1.00;;;0.32;;
61531;SDS011;47397;48.194;11.632;2023-03-14T04:29:55;0.30;;;0.30;;
61531;SDS011;47397;48.194;11.632;2023-03-14T04:30:56;0.30;;;0.30;;
61531;SDS011;47397;48.194;11.632;2023-03-14T04:31:56;0.20;;;0.20;;
61531;SDS011;47397;48.194;11.632;2023-03-14T04:32:56;0.50;;;0.32;;
61531;SDS011;47397;48.194;11.632;2023-03-14T04:33:57;0.55;;;0.30;;
61531;SDS011;47397;48.194;11.632;2023-03-14T04:34:57;1.25;;;0.30;;
61531;SDS011;47397;48.194;11.632;2023-03-14T04:35:58;0.32;;;0.30;;
61531;SDS011;47397;48.194;11.632;2023-03-14T04:36:58;0.30;;;0.30;;
61531;SDS011;47397;48.194;11.632;2023-03-14T04:37:58;0.32;;;0.30;;
61531;SDS011;47397;48.194;11.632;2023-03-14T04:38:59;0.45;;;0.30;;
61531;SDS011;47397;48.194;11.632;2023-03-14T04:39:59;0.20;;;0.20;;
61531;SDS011;47397;48.194;11.632;2023-03-14T04:41:00;0.45;;;0.30;;
61531;SDS011;47397;48.194;11.632;2023-03-14T04:42:01;0.30;;;0.30;;
61531;SDS011;47397;48.194;11.632;2023-03-14T04:43:01;0.30;;;0.30;;
61531;SDS011;47397;48.194;11.632;2023-03-14T04:44:01;0.20;;;0.20;;
61531;SDS011;47397;48.194;11.632;2023-03-14T04:45:03;0.30;;;0.30;;
61531;SDS011;47397;48.194;11.632;2023-03-14T04:46:05;0.32;;;0.32;;
61531;SDS011;47397;48.194;11.632;2023-03-14T04:47:06;0.30;;;0.30;;
61531;SDS011;47397;48.194;11.632;2023-03-14T04:48:06;0.35;;;0.25;;
61531;SDS011;47397;48.194;11.632;2023-03-14T04:49:07;0.30;;;0.30;;
61531;SDS011;47397;48.194;11.632;2023-03-14T04:50:07;0.30;;;0.30;;
61531;SDS011;47397;48.194;11.632;2023-03-14T04:51:09;0.30;;;0.30;;
61531;SDS011;47397;48.194;11.632;2023-03-14T04:52:09;0.20;;;0.20;;
61531;SDS011;47397;48.194;11.632;2023-03-14T04:53:09;0.20;;;0.20;;
61531;SDS011;47397;48.194;11.632;2023-03-14T04:54:10;0.20;;;0.20;;
61531;SDS011;47397;48.194;11.632;2023-03-14T04:55:10;0.52;;;0.30;;
61531;SDS011;47397;48.194;11.632;2023-03-14T04:56:11;0.30;;;0.30;;
61531;SDS011;47397;48.194;11.632;2023-03-14T04:57:11;0.30;;;0.30;;
61531;SDS011;47397;48.194;11.632;2023-03-14T04:58:11;0.88;;;0.38;;
61531;SDS011;47397;48.194;11.632;2023-03-14T04:59:12;0.30;;;0.30;;
61531;SDS011;47397;48.194;11.632;2023-03-14T05:00:14;0.52;;;0.30;;
61531;SDS011;47397;48.194;11.632;2023-03-14T05:01:14;0.65;;;0.20;;
61531;SDS011;47397;48.194;11.632;2023-03-14T05:02:15;0.20;;;0.20;;
61531;SDS011;47397;48.194;11.632;2023-03-14T05:03:15;0.30;;;0.30;;
61531;SDS011;47397;48.194;11.632;2023-03-14T05:04:16;0.32;;;0.32;;
61531;SDS011;47397;48.194;11.632;2023-03-14T05:05:17;0.30;;;0.30;;
61531;SDS011;47397;48.194;11.632;2023-03-14T05:06:19;0.38;;;0.22;;
61531;SDS011;47397;48.194;11.632;2023-03-14T05:07:19;0.32;;;0.30;;
61531;SDS011;47397;48.194;11.632;2023-03-14T05:08:19;0.30;;;0.30;;
61531;SDS011;47397;48.194;11.632;2023-03-14T05:09:20;0.30;;;0.30;;
61531;SDS011;47397;48.194;11.632;2023-03-14T05:10:20;0.30;;;0.30;;
61531;SDS011;47397;48.194;11.632;2023-03-14T05:11:21;0.45;;;0.30;;
61531;SDS011;47397;48.194;11.632;2023-03-14T05:12:21;0.30;;;0.30;;
61531;SDS011;47397;48.194;11.632;2023-03-14T05:13:22;0.30;;;0.30;;
61531;SDS011;47397;48.194;11.632;2023-03-14T05:14:23;0.90;;;0.30;;
61531;SDS011;47397;48.194;11.632;2023-03-14T05:15:25;0.20;;;0.20;;
61531;SDS011;47397;48.194;11.632;2023-03-14T05:16:25;0.30;;;0.30;;
61531;SDS011;47397;48.194;11.632;2023-03-14T05:17:26;0.30;;;0.30;;
61531;SDS011;47397;48.194;11.632;2023-03-14T05:18:26;0.47;;;0.30;;
61531;SDS011;47397;48.194;11.632;2023-03-14T05:19:27;0.20;;;0.20;;
61531;SDS011;47397;48.194;11.632;2023-03-14T05:20:27;0.30;;;0.30;;
61531;SDS011;47397;48.194;11.632;2023-03-14T05:21:27;0.30;;;0.30;;
61531;SDS011;47397;48.194;11.632;2023-03-14T05:22:28;0.30;;;0.30;;
61531;SDS011;47397;48.194;11.632;2023-03-14T05:23:28;0.30;;;0.30;;
61531;SDS011;47397;48.194;11.632;2023-03-14T05:24:29;0.40;;;0.30;;
61531;SDS011;47397;48.194;11.632;2023-03-14T05:25:29;0.30;;;0.30;;
61531;SDS011;47397;48.194;11.632;2023-03-14T05:26:30;0.30;;;0.30;;
61531;SDS011;47397;48.194;11.632;2023-03-14T05:27:31;0.30;;;0.30;;
61531;SDS011;47397;48.194;11.632;2023-03-14T05:28:32;0.35;;;0.30;;
61531;SDS011;47397;48.194;11.632;2023-03-14T05:29:32;0.30;;;0.30;;
61531;SDS011;47397;48.194;11.632;2023-03-14T05:30:34;0.40;;;0.30;;
61531;SDS011;47397;48.194;11.632;2023-03-14T05:31:34;0.50;;;0.30;;
61531;SDS011;47397;48.194;11.632;2023-03-14T05:32:35;0.88;;;0.40;;
61531;SDS011;47397;48.194;11.632;2023-03-14T05:33:35;0.28;;;0.28;;
61531;SDS011;47397;48.194;11.632;2023-03-14T05:34:36;0.57;;;0.30;;
61531;SDS011;47397;48.194;11.632;2023-03-14T05:35:36;0.32;;;0.30;;
61531;SDS011;47397;48.194;11.632;2023-03-14T05:36:37;0.47;;;0.35;;
61531;SDS011;47397;48.194;11.632;2023-03-14T05:37:38;0.82;;;0.43;;
61531;SDS011;47397;48.194;11.632;2023-03-14T05:38:38;0.30;;;0.30;;
61531;SDS011;47397;48.194;11.632;2023-03-14T05:39:39;0.32;;;0.30;;
61531;SDS011;47397;48.194;11.632;2023-03-14T05:40:39;0.30;;;0.30;;
61531;SDS011;47397;48.194;11.632;2023-03-14T05:41:40;1.30;;;0.30;;
61531;SDS011;47397;48.194;11.632;2023-03-14T05:42:40;0.30;;;0.30;;
61531;SDS011;47397;48.194;11.632;2023-03-14T05:43:41;0.30;;;0.30;;
61531;SDS011;47397;48.194;11.632;2023-03-14T05:44:41;0.20;;;0.20;;
61531;SDS011;47397;48.194;11.632;2023-03-14T05:45:43;0.38;;;0.30;;
61531;SDS011;47397;48.194;11.632;2023-03-14T05:46:43;0.30;;;0.30;;
61531;SDS011;47397;48.194;11.632;2023-03-14T05:47:44;0.60;;;0.40;;
61531;SDS011;47397;48.194;11.632;2023-03-14T05:48:44;0.30;;;0.30;;
61531;SDS011;47397;48.194;11.632;2023-03-14T05:49:44;0.40;;;0.40;;
61531;SDS011;47397;48.194;11.632;2023-03-14T05:50:45;0.95;;;0.32;;
61531;SDS011;47397;48.194;11.632;2023-03-14T05:51:46;0.32;;;0.32;;
61531;SDS011;47397;48.194;11.632;2023-03-14T05:52:46;1.17;;;0.45;;
61531;SDS011;47397;48.194;11.632;2023-03-14T05:53:46;0.43;;;0.30;;
61531;SDS011;47397;48.194;11.632;2023-03-14T05:54:47;0.30;;;0.30;;
61531;SDS011;47397;48.194;11.632;2023-03-14T05:55:50;0.73;;;0.43;;
61531;SDS011;47397;48.194;11.632;2023-03-14T05:56:51;1.02;;;0.40;;
61531;SDS011;47397;48.194;11.632;2023-03-14T05:57:52;0.63;;;0.40;;
61531;SDS011;47397;48.194;11.632;2023-03-14T05:58:52;0.43;;;0.40;;
61531;SDS011;47397;48.194;11.632;2023-03-14T05:59:53;0.30;;;0.30;;
61531;SDS011;47397;48.194;11.632;2023-03-14T06:00:55;0.30;;;0.30;;
61531;SDS011;47397;48.194;11.632;2023-03-14T06:01:55;0.30;;;0.30;;
61531;SDS011;47397;48.194;11.632;2023-03-14T06:02:56;0.30;;;0.30;;
61531;SDS011;47397;48.194;11.632;2023-03-14T06:03:56;0.93;;;0.30;;